createdAt,value
2017-10-16T00:00:30.246Z,14.83
2017-10-16T00:05:32.124Z,14.20
2017-10-16T00:10:34.001Z,15.63
2017-10-16T00:15:35.880Z,15.10
2017-10-16T00:20:37.971Z,14.90
2017-10-16T00:25:39.942Z,17.23
2017-10-16T00:30:41.819Z,14.93
2017-10-16T00:35:43.696Z,16.40
2017-10-16T00:40:45.581Z,16.27
2017-10-16T00:45:50.320Z,14.37
2017-10-16T00:50:52.196Z,14.20
2017-10-16T00:55:54.279Z,15.67
2017-10-16T01:00:56.361Z,14.70
2017-10-16T01:05:58.239Z,14.40
2017-10-16T01:11:00.321Z,14.90
2017-10-16T01:16:03.530Z,13.83
2017-10-16T01:21:05.613Z,13.30
2017-10-16T01:26:07.694Z,14.60
2017-10-16T01:31:09.880Z,17.80
2017-10-16T01:36:12.986Z,19.37
2017-10-16T01:41:15.068Z,18.13
2017-10-16T01:46:17.965Z,18.17
2017-10-16T01:51:20.974Z,18.77
2017-10-16T01:56:24.160Z,18.33
2017-10-16T02:01:26.367Z,16.00
2017-10-16T02:06:28.450Z,15.57
2017-10-16T02:11:30.327Z,14.97
2017-10-16T02:16:32.208Z,14.90
2017-10-16T02:21:34.187Z,16.00
2017-10-16T02:26:36.062Z,14.17
2017-10-16T02:31:38.964Z,14.07
2017-10-16T02:36:44.852Z,14.70
2017-10-16T02:41:49.447Z,15.20
2017-10-16T02:46:53.260Z,15.00
2017-10-16T02:51:58.973Z,14.30
2017-10-16T02:57:01.772Z,14.10
2017-10-16T03:02:06.018Z,14.70
2017-10-16T03:07:08.681Z,14.13
2017-10-16T03:12:11.341Z,15.20
2017-10-16T03:17:13.810Z,13.33
2017-10-16T03:22:16.328Z,14.00
2017-10-16T03:27:19.036Z,14.87
2017-10-16T03:32:21.053Z,15.40
2017-10-16T03:37:22.932Z,16.90
2017-10-16T03:42:24.911Z,16.73
2017-10-16T03:47:26.996Z,15.20
2017-10-16T03:52:29.076Z,17.20
2017-10-16T03:57:30.955Z,16.43
2017-10-16T04:02:38.360Z,16.50
2017-10-16T04:07:40.444Z,17.77
2017-10-16T04:12:42.320Z,20.70
2017-10-16T04:17:44.403Z,20.73
2017-10-16T04:22:46.260Z,20.00
2017-10-16T04:27:48.162Z,20.90
2017-10-16T04:32:50.036Z,20.77
2017-10-16T04:37:51.914Z,19.37
2017-10-16T04:42:54.406Z,19.87
2017-10-16T04:47:56.282Z,19.97
2017-10-16T04:52:58.160Z,20.00
2017-10-16T04:58:00.038Z,19.37
2017-10-16T05:03:01.918Z,19.97
2017-10-16T05:08:03.794Z,20.20
2017-10-16T05:13:05.671Z,21.50
2017-10-16T05:18:07.555Z,20.70
2017-10-16T16:55:20.788Z,8.67
2017-10-16T17:00:21.842Z,8.33
2017-10-16T17:05:22.897Z,9.40
2017-10-16T17:10:24.981Z,9.40
2017-10-16T17:15:26.030Z,11.30
2017-10-16T17:20:27.098Z,9.10
2017-10-16T17:25:28.168Z,9.40
2017-10-16T17:30:29.222Z,9.07
2017-10-16T17:35:30.282Z,9.30
2017-10-16T17:40:31.357Z,9.90
2017-10-16T17:45:32.492Z,12.37
2017-10-16T17:50:38.558Z,11.23
2017-10-16T17:55:40.645Z,10.33
2017-10-16T18:00:41.709Z,9.53
2017-10-16T18:05:42.765Z,10.57
2017-10-16T18:10:45.881Z,10.93
2017-10-16T18:15:46.924Z,10.30
2017-10-16T18:20:48.007Z,9.13
2017-10-16T18:25:49.151Z,10.00
2017-10-16T18:30:50.229Z,10.43
2017-10-16T18:35:52.311Z,11.43
2017-10-16T18:40:53.355Z,13.07
2017-10-16T18:45:55.422Z,12.03
2017-10-16T18:50:58.551Z,11.53
2017-10-16T18:56:00.642Z,10.80
2017-10-16T19:01:01.703Z,13.00
2017-10-16T19:06:02.745Z,13.00
2017-10-16T19:11:05.766Z,11.90
2017-10-16T19:16:06.848Z,11.17
2017-10-16T19:21:08.923Z,11.03
2017-10-16T19:26:09.929Z,9.80
2017-10-16T19:31:13.065Z,10.20
2017-10-16T19:36:14.116Z,13.57
2017-10-16T19:41:15.162Z,15.10
2017-10-16T19:46:17.271Z,16.60
2017-10-16T19:51:19.326Z,12.43
2017-10-16T19:56:20.401Z,13.23
2017-10-16T20:01:22.486Z,14.23
2017-10-16T20:06:23.642Z,12.87
2017-10-16T20:11:24.692Z,12.77
2017-10-16T20:16:26.785Z,13.87
2017-10-16T20:21:27.929Z,12.57
2017-10-16T20:26:29.002Z,12.63
2017-10-16T20:31:31.186Z,12.90
2017-10-16T20:36:34.189Z,12.10
2017-10-16T20:41:35.242Z,11.10
2017-10-16T20:46:38.353Z,9.90
2017-10-16T20:51:39.454Z,10.07
2017-10-16T20:56:41.493Z,10.27
2017-10-16T21:01:42.568Z,10.33
2017-10-16T21:06:43.727Z,9.03
2017-10-16T21:11:44.774Z,9.47
2017-10-16T21:16:46.845Z,9.27
2017-10-16T21:21:48.954Z,9.10
2017-10-16T21:26:49.984Z,9.70
2017-10-16T21:31:51.052Z,8.60
2017-10-16T21:36:53.130Z,8.77
2017-10-16T21:41:54.297Z,10.10
2017-10-16T21:46:55.358Z,9.00
2017-10-16T21:52:08.499Z,9.10
2017-10-16T21:57:09.522Z,8.73
2017-10-16T22:02:10.613Z,7.70
2017-10-16T22:07:12.683Z,8.70
2017-10-16T22:12:13.746Z,7.40
2017-10-16T22:17:14.809Z,8.37
2017-10-16T22:22:15.861Z,7.73
2017-10-16T22:27:18.670Z,8.07
2017-10-16T22:32:19.722Z,9.03
2017-10-16T22:37:20.791Z,8.27
2017-10-16T22:42:21.835Z,7.50
2017-10-16T22:47:29.676Z,8.43
2017-10-16T22:52:30.698Z,8.20
2017-10-16T22:57:32.486Z,8.20
2017-10-16T23:02:33.545Z,9.10
2017-10-16T23:07:34.713Z,9.37
2017-10-16T23:12:36.777Z,9.97
2017-10-16T23:17:37.853Z,10.00
2017-10-16T23:22:38.920Z,9.30
2017-10-16T23:27:41.153Z,11.10
2017-10-16T23:32:42.273Z,9.70
2017-10-16T23:37:44.343Z,9.93
2017-10-16T23:42:45.390Z,9.37
2017-10-16T23:47:47.537Z,10.13
2017-10-16T23:52:49.541Z,9.73
2017-10-16T23:57:50.625Z,9.87
